createdAt,value
2022-10-30T00:01:27.251Z,-6.88
2022-10-30T00:03:55.969Z,-6.93
2022-10-30T00:06:24.764Z,-6.80
2022-10-30T00:08:53.333Z,-6.80
2022-10-30T00:11:21.992Z,-6.84
2022-10-30T00:13:50.731Z,-6.97
2022-10-30T00:16:19.622Z,-6.73
2022-10-30T00:18:48.477Z,-6.95
2022-10-30T00:21:17.546Z,-6.75
2022-10-30T00:23:54.224Z,-6.78
2022-10-30T00:26:24.975Z,-6.72
2022-10-30T00:28:56.285Z,-6.88
2022-10-30T00:31:25.261Z,-6.90
2022-10-30T00:33:55.575Z,-6.85
2022-10-30T00:36:24.857Z,-6.89
2022-10-30T00:38:53.703Z,-7.06
2022-10-30T00:41:24.196Z,-7.00
2022-10-30T00:43:53.936Z,-7.04
2022-10-30T00:46:40.157Z,-7.13
2022-10-30T00:49:16.318Z,-7.21
2022-10-30T00:51:53.573Z,-7.80
2022-10-30T00:54:23.959Z,-7.24
2022-10-30T00:56:53.694Z,-7.17
2022-10-30T00:59:31.658Z,-7.80
2022-10-30T01:02:03.558Z,-7.29
2022-10-30T01:04:34.915Z,-7.22
2022-10-30T01:07:10.449Z,-7.26
2022-10-30T01:09:41.135Z,-7.23
2022-10-30T01:12:10.448Z,-7.36
2022-10-30T01:14:44.238Z,-7.36
2022-10-30T01:17:18.363Z,-7.37
2022-10-30T01:19:56.182Z,-7.38
2022-10-30T01:22:43.392Z,-7.60
2022-10-30T01:25:27.276Z,-7.46
2022-10-30T01:28:21.127Z,-7.48
2022-10-30T01:31:01.887Z,-7.50
2022-10-30T01:33:56.394Z,-7.58
2022-10-30T01:36:40.018Z,-7.73
2022-10-30T01:39:19.845Z,-8.07
2022-10-30T01:41:48.773Z,-7.74
2022-10-30T01:44:24.054Z,-7.88
2022-10-30T01:47:23.317Z,-8.02
2022-10-30T01:50:24.389Z,-7.92
2022-10-30T01:53:04.594Z,-8.07
2022-10-30T01:55:48.176Z,-8.15
2022-10-30T01:58:23.254Z,-8.29
2022-10-30T02:00:59.673Z,-7.93
2022-10-30T02:03:28.898Z,-7.98
2022-10-30T02:05:57.873Z,-8.07
2022-10-30T02:08:26.395Z,-7.94
2022-10-30T02:10:56.550Z,-8.47
2022-10-30T02:13:39.016Z,-7.79
2022-10-30T02:16:10.580Z,-7.81
2022-10-30T02:18:39.944Z,-7.70
2022-10-30T02:21:09.784Z,-7.87
2022-10-30T02:23:42.516Z,-7.70
2022-10-30T02:26:11.357Z,-7.76
2022-10-30T02:28:40.150Z,-7.73
2022-10-30T02:31:08.644Z,-7.71
2022-10-30T02:33:37.388Z,-7.78
2022-10-30T02:36:06.657Z,-7.59
2022-10-30T02:38:35.290Z,-8.07
2022-10-30T02:41:04.020Z,-7.52
2022-10-30T02:43:32.660Z,-7.36
2022-10-30T02:46:01.399Z,-7.51
2022-10-30T02:48:31.670Z,-7.25
2022-10-30T02:51:07.160Z,-7.24
2022-10-30T02:53:36.087Z,-7.23
2022-10-30T02:56:15.264Z,-7.22
2022-10-30T02:58:45.046Z,-7.13
2022-10-30T03:01:17.183Z,-7.12
2022-10-30T03:03:47.277Z,-7.02
2022-10-30T03:06:17.595Z,-6.91
2022-10-30T03:08:46.164Z,-6.82
2022-10-30T03:11:17.361Z,-6.63
2022-10-30T03:13:48.761Z,-6.70
2022-10-30T03:16:24.448Z,-6.64
2022-10-30T03:18:53.721Z,-6.38
2022-10-30T03:21:24.214Z,-6.29
2022-10-30T03:23:53.398Z,-6.13
2022-10-30T03:26:23.168Z,-5.94
2022-10-30T03:29:04.883Z,-5.98
2022-10-30T03:31:34.318Z,-5.84
2022-10-30T03:34:16.208Z,-5.69
2022-10-30T03:36:45.285Z,-5.56
2022-10-30T03:39:14.829Z,-5.78
2022-10-30T03:41:45.966Z,-5.26
2022-10-30T03:44:14.999Z,-5.24
2022-10-30T03:46:43.634Z,-5.05
2022-10-30T03:49:26.106Z,-5.07
2022-10-30T03:51:56.114Z,-5.02
2022-10-30T03:54:26.966Z,-5.01
2022-10-30T03:56:55.679Z,-4.58
2022-10-30T03:59:27.520Z,-4.60
2022-10-30T04:02:15.904Z,-4.40
2022-10-30T04:04:45.354Z,-4.27
2022-10-30T04:07:15.870Z,-4.13
2022-10-30T04:09:44.767Z,-4.08
2022-10-30T04:12:13.605Z,-4.12
2022-10-30T04:14:42.221Z,-3.97
2022-10-30T04:19:44.679Z,-3.77
2022-10-30T04:22:13.651Z,-3.89
2022-10-30T04:24:42.454Z,-3.71
2022-10-30T04:27:11.305Z,-3.59
2022-10-30T04:29:40.010Z,-3.66
2022-10-30T04:32:10.139Z,-3.78
2022-10-30T04:34:40.306Z,-3.49
2022-10-30T04:37:09.085Z,-3.59
2022-10-30T04:39:42.285Z,-3.49
2022-10-30T04:42:19.160Z,-3.46
2022-10-30T04:44:48.038Z,-3.44
2022-10-30T04:47:18.210Z,-3.46
2022-10-30T04:49:47.149Z,-3.41
2022-10-30T04:52:15.719Z,-3.54
2022-10-30T04:54:45.270Z,-3.15
2022-10-30T04:57:16.888Z,-3.07
2022-10-30T04:59:45.518Z,-3.11
2022-10-30T05:02:14.228Z,-3.04
2022-10-30T05:04:43.054Z,-3.04
2022-10-30T05:07:12.440Z,-2.92
2022-10-30T05:09:41.179Z,-2.88
2022-10-30T05:12:10.919Z,-2.89
2022-10-30T05:14:50.448Z,-2.70
2022-10-30T05:17:20.046Z,-2.77
2022-10-30T05:19:50.890Z,-2.71
2022-10-30T05:22:20.015Z,-2.70
2022-10-30T05:24:49.667Z,-2.85
2022-10-30T05:27:18.642Z,-2.68
2022-10-30T05:29:47.488Z,-2.65
2022-10-30T05:32:17.080Z,-2.78
2022-10-30T05:34:49.245Z,-2.69
2022-10-30T05:37:21.918Z,-2.62
2022-10-30T05:39:50.871Z,-2.60
2022-10-30T05:42:27.024Z,-2.47
2022-10-30T05:45:01.442Z,-2.50
2022-10-30T05:47:34.750Z,-2.46
2022-10-30T05:50:04.910Z,-2.33
2022-10-30T05:52:33.993Z,-2.16
2022-10-30T05:55:04.115Z,-2.10
2022-10-30T05:57:48.599Z,-2.10
2022-10-30T06:00:18.063Z,-2.03
2022-10-30T06:02:47.301Z,-2.13
2022-10-30T06:05:18.277Z,-2.00
2022-10-30T06:07:49.814Z,-2.02
2022-10-30T06:10:18.773Z,-1.87
2022-10-30T06:13:08.519Z,-1.89
2022-10-30T06:15:42.532Z,-1.73
2022-10-30T06:18:11.679Z,-2.22
2022-10-30T06:20:46.191Z,-1.78
2022-10-30T06:23:33.004Z,-1.90
2022-10-30T06:26:26.373Z,-1.57
2022-10-30T06:28:58.854Z,-1.48
2022-10-30T06:31:27.420Z,-1.35
2022-10-30T06:33:56.093Z,-1.37
2022-10-30T06:36:25.005Z,-1.41
2022-10-30T06:38:54.936Z,-1.52
2022-10-30T06:41:30.234Z,-1.54
2022-10-30T06:44:19.375Z,-1.69
2022-10-30T06:46:48.865Z,-1.81
2022-10-30T06:49:18.766Z,-1.61
2022-10-30T06:51:52.921Z,-1.54
2022-10-30T06:54:21.807Z,-1.24
2022-10-30T06:57:19.189Z,-1.18
2022-10-30T07:00:08.548Z,-1.22
2022-10-30T07:03:01.487Z,-1.13
2022-10-30T07:05:31.130Z,-1.11
2022-10-30T07:07:59.626Z,-1.08
2022-10-30T07:10:28.624Z,-0.82
2022-10-30T07:13:20.976Z,-0.84
2022-10-30T07:16:06.927Z,-0.65
2022-10-30T07:18:39.535Z,-0.77
2022-10-30T07:21:08.696Z,-0.72
2022-10-30T07:23:38.455Z,-0.72
2022-10-30T07:26:18.724Z,-0.61
2022-10-30T07:28:48.410Z,-0.50
2022-10-30T07:31:34.861Z,-0.37
2022-10-30T07:34:36.661Z,-0.21
2022-10-30T07:37:25.320Z,-0.33
2022-10-30T07:40:12.527Z,-0.28
2022-10-30T07:43:01.347Z,-0.20
2022-10-30T07:46:02.511Z,-0.28
2022-10-30T07:48:31.339Z,-0.17
2022-10-30T07:51:09.796Z,0.06
2022-10-30T07:53:39.291Z,-0.13
2022-10-30T07:56:08.922Z,-0.14
2022-10-30T07:58:56.339Z,-0.12
2022-10-30T08:01:43.896Z,-0.10
2022-10-30T08:04:35.367Z,-0.49
2022-10-30T08:07:21.665Z,-0.37
2022-10-30T08:09:50.788Z,-0.82
2022-10-30T08:12:19.750Z,-0.32
2022-10-30T08:14:49.186Z,-0.34
2022-10-30T08:17:17.964Z,-0.40
2022-10-30T08:19:47.123Z,-0.33
2022-10-30T08:22:16.440Z,-0.28
2022-10-30T08:24:49.094Z,-0.21
2022-10-30T08:27:20.172Z,-0.24
2022-10-30T08:29:49.049Z,-0.14
2022-10-30T08:32:18.884Z,-0.09
2022-10-30T08:35:20.477Z,-0.20
2022-10-30T08:37:49.156Z,0.03
2022-10-30T08:40:18.575Z,-0.08
2022-10-30T08:42:59.028Z,0.23
2022-10-30T08:45:31.085Z,0.15
2022-10-30T08:48:12.665Z,0.15
2022-10-30T08:50:43.381Z,0.08
2022-10-30T08:53:16.266Z,-0.06
2022-10-30T08:55:47.145Z,-0.55
2022-10-30T08:58:30.984Z,0.11
2022-10-30T09:01:01.559Z,0.20
2022-10-30T09:03:53.659Z,0.29
2022-10-30T09:06:48.653Z,0.12
2022-10-30T09:09:35.973Z,0.03
2022-10-30T09:12:06.043Z,-0.05
2022-10-30T09:14:43.106Z,0.22
2022-10-30T09:17:13.510Z,-0.10
2022-10-30T09:22:20.151Z,0.14
2022-10-30T09:24:49.633Z,-0.01
2022-10-30T09:27:48.006Z,-0.07
2022-10-30T09:30:18.116Z,-0.15
2022-10-30T09:33:03.277Z,-0.12
2022-10-30T09:35:58.662Z,-0.27
2022-10-30T09:38:27.457Z,-0.30
2022-10-30T09:41:36.598Z,-0.55
2022-10-30T09:44:56.545Z,-0.29
2022-10-30T09:47:51.346Z,-0.60
2022-10-30T09:50:37.347Z,-0.46
2022-10-30T09:53:21.750Z,-0.43
2022-10-30T09:56:05.486Z,-0.67
2022-10-30T09:59:18.848Z,-0.63
2022-10-30T10:01:56.927Z,-0.54
2022-10-30T10:04:36.441Z,-0.60
2022-10-30T10:07:40.054Z,-1.15
2022-10-30T10:11:03.845Z,-0.65
2022-10-30T10:13:51.152Z,-0.65
2022-10-30T10:16:24.439Z,-0.71
2022-10-30T10:19:13.323Z,-0.70
2022-10-30T10:21:47.379Z,-0.85
2022-10-30T10:24:23.558Z,-0.88
2022-10-30T10:27:11.379Z,-0.92
2022-10-30T10:30:09.839Z,-0.72
2022-10-30T10:33:04.523Z,-0.73
2022-10-30T10:35:54.247Z,-0.75
2022-10-30T10:38:49.778Z,-0.81
2022-10-30T10:41:25.759Z,-0.86
2022-10-30T10:44:22.001Z,-0.84
2022-10-30T10:46:53.637Z,-0.83
2022-10-30T10:49:43.919Z,-0.84
2022-10-30T10:52:35.195Z,-1.00
2022-10-30T10:55:17.074Z,-0.89
2022-10-30T10:57:47.462Z,-1.18
2022-10-30T11:00:23.024Z,-1.00
2022-10-30T11:03:20.303Z,-1.04
2022-10-30T11:06:00.380Z,-1.06
2022-10-30T11:08:32.077Z,-1.03
2022-10-30T11:11:03.078Z,-1.18
2022-10-30T11:13:36.018Z,-1.05
2022-10-30T11:16:39.231Z,-1.17
2022-10-30T11:19:10.266Z,-1.09
2022-10-30T11:21:53.018Z,-1.17
2022-10-30T11:24:30.770Z,-1.15
2022-10-30T11:27:25.578Z,-1.24
2022-10-30T11:30:02.317Z,-1.22
2022-10-30T11:32:33.777Z,-1.65
2022-10-30T11:35:15.338Z,-1.31
2022-10-30T11:37:45.782Z,-1.39
2022-10-30T11:40:14.689Z,-1.28
2022-10-30T11:42:46.369Z,-1.30
2022-10-30T11:45:33.944Z,-1.33
2022-10-30T11:48:14.089Z,-1.54
2022-10-30T11:50:48.893Z,-1.34
2022-10-30T11:53:31.127Z,-1.45
2022-10-30T11:56:00.014Z,-1.50
2022-10-30T11:58:36.833Z,-1.39
2022-10-30T12:01:25.038Z,-1.38
2022-10-30T12:03:55.898Z,-1.53
2022-10-30T12:06:24.455Z,-1.37
2022-10-30T12:09:03.436Z,-1.36
2022-10-30T12:11:37.386Z,-1.43
2022-10-30T12:14:06.688Z,-1.73
2022-10-30T12:16:35.556Z,-1.44
2022-10-30T12:19:15.932Z,-1.46
2022-10-30T12:21:50.340Z,-1.42
2022-10-30T12:24:40.701Z,-1.63
2022-10-30T12:27:19.727Z,-1.43
2022-10-30T12:30:08.835Z,-1.53
2022-10-30T12:33:14.822Z,-1.43
2022-10-30T12:36:06.041Z,-1.64
2022-10-30T12:38:41.780Z,-1.53
2022-10-30T12:41:27.987Z,-1.43
2022-10-30T12:44:14.349Z,-1.42
2022-10-30T12:46:58.111Z,-1.50
2022-10-30T12:49:38.452Z,-1.41
2022-10-30T12:52:14.736Z,-1.41
2022-10-30T12:55:02.091Z,-1.43
2022-10-30T12:57:38.547Z,-1.49
2022-10-30T13:00:18.456Z,-1.63
2022-10-30T13:03:15.181Z,-1.42
2022-10-30T13:05:56.707Z,-1.50
2022-10-30T13:08:40.843Z,-2.33
2022-10-30T13:11:18.637Z,-1.47
2022-10-30T13:13:53.799Z,-1.46
2022-10-30T13:16:32.971Z,-1.54
2022-10-30T13:19:03.058Z,-2.25
2022-10-30T13:22:08.675Z,-1.56
2022-10-30T13:25:03.861Z,-1.68
2022-10-30T13:27:42.638Z,-1.75
2022-10-30T13:30:16.382Z,-1.63
2022-10-30T13:33:01.378Z,-1.59
2022-10-30T13:35:48.497Z,-1.65
2022-10-30T13:38:41.656Z,-1.66
2022-10-30T13:41:34.333Z,-1.67
2022-10-30T13:44:06.390Z,-1.64
2022-10-30T13:46:53.641Z,-1.69
2022-10-30T13:49:36.916Z,-1.71
2022-10-30T13:52:16.355Z,-1.84
2022-10-30T13:55:08.138Z,-1.76
2022-10-30T13:57:46.988Z,-2.15
2022-10-30T14:00:51.524Z,-2.05
2022-10-30T14:03:34.154Z,-1.86
2022-10-30T14:06:20.105Z,-1.95
2022-10-30T14:09:14.555Z,-1.87
2022-10-30T14:11:43.653Z,-1.95
2022-10-30T14:14:24.876Z,-1.90
2022-10-30T14:17:18.948Z,-1.94
2022-10-30T14:20:12.467Z,-2.04
2022-10-30T14:22:42.807Z,-2.13
2022-10-30T14:25:17.283Z,-2.12
2022-10-30T14:27:57.266Z,-2.02
2022-10-30T14:30:29.704Z,-2.29
2022-10-30T14:32:58.722Z,-2.15
2022-10-30T14:35:39.583Z,-2.32
2022-10-30T14:38:08.335Z,-2.06
2022-10-30T14:41:26.863Z,-2.17
2022-10-30T14:44:07.538Z,-2.08
2022-10-30T14:46:48.676Z,-2.29
2022-10-30T14:49:37.759Z,-2.24
2022-10-30T14:52:29.528Z,-2.60
2022-10-30T14:55:26.448Z,-2.37
2022-10-30T14:58:28.902Z,-2.17
2022-10-30T15:01:18.173Z,-2.18
2022-10-30T15:03:56.170Z,-2.17
2022-10-30T15:06:43.324Z,-2.19
2022-10-30T15:09:42.275Z,-2.26
2022-10-30T15:12:31.360Z,-2.24
2022-10-30T15:15:04.370Z,-2.36
2022-10-30T15:17:42.826Z,-2.34
2022-10-30T15:20:30.740Z,-2.40
2022-10-30T15:23:08.052Z,-2.47
2022-10-30T15:25:40.921Z,-2.50
2022-10-30T15:28:20.459Z,-2.52
2022-10-30T15:31:05.033Z,-2.39
2022-10-30T15:33:38.517Z,-2.39
2022-10-30T15:36:17.184Z,-2.45
2022-10-30T15:38:46.039Z,-2.47
2022-10-30T15:41:15.180Z,-2.90
2022-10-30T15:43:45.224Z,-2.59
2022-10-30T15:46:16.718Z,-2.60
2022-10-30T15:48:48.619Z,-2.77
2022-10-30T15:51:22.715Z,-2.67
2022-10-30T15:53:56.868Z,-2.66
2022-10-30T15:56:31.659Z,-2.61
2022-10-30T15:59:18.183Z,-2.66
2022-10-30T16:01:50.080Z,-2.64
2022-10-30T16:04:27.854Z,-2.60
2022-10-30T16:06:59.096Z,-2.59
2022-10-30T16:09:29.353Z,-2.72
2022-10-30T16:12:01.376Z,-2.76
2022-10-30T16:14:33.281Z,-2.81
2022-10-30T16:17:02.623Z,-3.10
2022-10-30T16:19:41.344Z,-2.81
2022-10-30T16:22:22.355Z,-3.00
2022-10-30T16:24:51.150Z,-2.90
2022-10-30T16:27:24.466Z,-2.90
2022-10-30T16:30:01.078Z,-3.08
2022-10-30T16:32:32.159Z,-2.89
2022-10-30T16:35:03.696Z,-3.01
2022-10-30T16:37:41.673Z,-2.93
2022-10-30T16:40:16.611Z,-3.73
2022-10-30T16:43:01.484Z,-2.80
2022-10-30T16:45:33.162Z,-2.85
2022-10-30T16:50:47.927Z,-2.89
2022-10-30T16:53:27.096Z,-3.04
2022-10-30T16:55:58.670Z,-3.20
2022-10-30T16:58:32.723Z,-3.00
2022-10-30T17:01:07.499Z,-3.03
2022-10-30T17:03:41.164Z,-2.90
2022-10-30T17:06:36.125Z,-2.88
2022-10-30T17:09:27.611Z,-2.90
2022-10-30T17:12:13.898Z,-3.08
2022-10-30T17:14:52.165Z,-3.03
2022-10-30T17:17:36.157Z,-3.16
2022-10-30T17:20:14.314Z,-2.95
2022-10-30T17:22:43.243Z,-3.07
2022-10-30T17:25:39.878Z,-3.00
2022-10-30T17:28:25.911Z,-3.33
2022-10-30T17:30:54.976Z,-3.32
2022-10-30T17:33:35.820Z,-3.17
2022-10-30T17:36:08.450Z,-3.39
2022-10-30T17:38:37.339Z,-3.37
2022-10-30T17:41:08.976Z,-3.41
2022-10-30T17:43:56.882Z,-3.63
2022-10-30T17:46:25.973Z,-3.82
2022-10-30T17:48:55.073Z,-3.47
2022-10-30T17:51:23.695Z,-3.98
2022-10-30T17:53:52.438Z,-3.65
2022-10-30T17:56:31.106Z,-3.73
2022-10-30T17:59:00.042Z,-3.81
2022-10-30T18:01:28.984Z,-3.85
2022-10-30T18:03:58.135Z,-3.89
2022-10-30T18:06:29.024Z,-4.02
2022-10-30T18:08:57.747Z,-3.96
2022-10-30T18:11:27.690Z,-3.92
2022-10-30T18:13:58.529Z,-3.91
2022-10-30T18:16:28.037Z,-3.92
2022-10-30T18:18:56.910Z,-4.17
2022-10-30T18:21:28.357Z,-4.35
2022-10-30T18:23:57.000Z,-4.18
2022-10-30T18:26:28.603Z,-4.31
2022-10-30T18:28:57.468Z,-4.44
2022-10-30T18:31:26.202Z,-4.43
2022-10-30T18:33:54.758Z,-4.42
2022-10-30T18:36:25.869Z,-4.44
2022-10-30T18:38:55.408Z,-4.56
2022-10-30T18:41:37.548Z,-4.58
2022-10-30T18:44:06.447Z,-4.72
2022-10-30T18:46:35.551Z,-4.65
2022-10-30T18:49:04.345Z,-4.80
2022-10-30T18:51:34.111Z,-5.16
2022-10-30T18:54:02.719Z,-4.92
2022-10-30T18:56:35.153Z,-4.99
2022-10-30T18:59:03.626Z,-5.97
2022-10-30T19:01:33.042Z,-4.94
2022-10-30T19:04:02.861Z,-5.00
2022-10-30T19:06:31.717Z,-5.18
2022-10-30T19:09:00.334Z,-5.09
2022-10-30T19:11:31.437Z,-5.14
2022-10-30T19:14:00.784Z,-5.20
2022-10-30T19:16:29.747Z,-5.42
2022-10-30T19:18:58.317Z,-5.10
2022-10-30T19:21:28.484Z,-5.12
2022-10-30T19:24:03.851Z,-5.31
2022-10-30T19:26:32.498Z,-5.28
2022-10-30T19:29:00.997Z,-5.60
2022-10-30T19:31:29.344Z,-6.29
2022-10-30T19:33:57.939Z,-5.50
2022-10-30T19:36:36.659Z,-5.44
2022-10-30T19:39:12.870Z,-5.56
2022-10-30T19:41:41.888Z,-5.49
2022-10-30T19:44:10.887Z,-5.59
2022-10-30T19:46:39.377Z,-5.53
2022-10-30T19:49:18.440Z,-5.48
2022-10-30T19:51:47.531Z,-5.50
2022-10-30T19:54:16.361Z,-5.82
2022-10-30T19:56:45.085Z,-5.57
2022-10-30T19:59:15.949Z,-5.81
2022-10-30T20:01:45.315Z,-5.65
2022-10-30T20:04:14.408Z,-5.81
2022-10-30T20:06:43.073Z,-5.78
2022-10-30T20:09:12.965Z,-5.86
2022-10-30T20:11:41.508Z,-5.73
2022-10-30T20:14:10.088Z,-5.79
2022-10-30T20:16:38.679Z,-5.84
2022-10-30T20:19:28.470Z,-5.75
2022-10-30T20:21:57.282Z,-5.81
2022-10-30T20:24:25.996Z,-5.94
2022-10-30T20:26:57.936Z,-5.96
2022-10-30T20:29:26.590Z,-5.95
2022-10-30T20:31:55.248Z,-6.12
2022-10-30T20:34:23.626Z,-5.89
2022-10-30T20:36:52.217Z,-5.87
2022-10-30T20:39:20.568Z,-5.90
2022-10-30T20:41:49.152Z,-5.90
2022-10-30T20:44:17.646Z,-6.02
2022-10-30T20:46:48.799Z,-6.03
2022-10-30T20:49:18.371Z,-5.93
2022-10-30T20:51:48.649Z,-6.07
2022-10-30T20:54:17.795Z,-5.99
2022-10-30T20:56:46.025Z,-5.98
2022-10-30T20:59:14.688Z,-6.12
2022-10-30T21:01:43.301Z,-6.07
2022-10-30T21:04:11.928Z,-6.27
2022-10-30T21:06:40.189Z,-6.23
2022-10-30T21:09:09.367Z,-6.25
2022-10-30T21:11:37.906Z,-6.16
2022-10-30T21:14:09.215Z,-6.13
2022-10-30T21:16:37.655Z,-6.30
2022-10-30T21:19:08.545Z,-6.02
2022-10-30T21:21:37.226Z,-6.17
2022-10-30T21:24:05.847Z,-6.40
2022-10-30T21:26:35.881Z,-6.12
2022-10-30T21:29:06.286Z,-6.19
2022-10-30T21:31:34.759Z,-6.30
2022-10-30T21:34:03.345Z,-6.22
2022-10-30T21:36:31.959Z,-6.18
2022-10-30T21:39:00.626Z,-6.05
2022-10-30T21:41:29.065Z,-6.10
2022-10-30T21:43:59.228Z,-6.05
2022-10-30T21:46:31.695Z,-6.03
2022-10-30T21:49:07.370Z,-6.02
2022-10-30T21:51:36.104Z,-5.99
2022-10-30T21:54:04.843Z,-5.99
2022-10-30T21:56:33.653Z,-6.01
2022-10-30T21:59:05.427Z,-5.96
2022-10-30T22:01:36.996Z,-5.82
2022-10-30T22:04:08.457Z,-5.89
2022-10-30T22:06:45.949Z,-6.14
2022-10-30T22:09:19.030Z,-5.88
2022-10-30T22:11:47.407Z,-5.95
2022-10-30T22:14:16.208Z,-5.82
2022-10-30T22:16:45.769Z,-5.87
2022-10-30T22:19:14.299Z,-6.09
2022-10-30T22:21:42.670Z,-5.98
2022-10-30T22:24:11.365Z,-5.92
2022-10-30T22:26:39.814Z,-6.02
2022-10-30T22:29:11.741Z,-6.07
2022-10-30T22:31:40.406Z,-6.14
2022-10-30T22:34:09.107Z,-6.05
2022-10-30T22:36:37.671Z,-6.14
2022-10-30T22:39:08.965Z,-6.14
2022-10-30T22:41:38.421Z,-6.15
2022-10-30T22:44:14.255Z,-6.18
2022-10-30T22:46:42.764Z,-6.33
2022-10-30T22:49:11.557Z,-6.63
2022-10-30T22:51:40.884Z,-6.58
2022-10-30T22:54:15.791Z,-6.32
2022-10-30T22:56:44.345Z,-6.25
2022-10-30T22:59:14.025Z,-6.21
2022-10-30T23:01:43.307Z,-6.26
2022-10-30T23:04:13.378Z,-6.18
2022-10-30T23:06:42.045Z,-6.30
2022-10-30T23:09:19.968Z,-6.27
2022-10-30T23:11:48.646Z,-6.45
2022-10-30T23:14:17.534Z,-6.48
2022-10-30T23:16:46.116Z,-6.36
2022-10-30T23:19:14.594Z,-6.50
2022-10-30T23:21:43.173Z,-6.59
2022-10-30T23:24:11.704Z,-6.54
2022-10-30T23:26:40.172Z,-6.59
2022-10-30T23:29:08.929Z,-6.46
2022-10-30T23:31:42.845Z,-6.65
2022-10-30T23:34:17.386Z,-6.92
2022-10-30T23:36:46.106Z,-6.58
2022-10-30T23:39:17.507Z,-6.66
2022-10-30T23:41:46.447Z,-6.68
2022-10-30T23:44:16.992Z,-6.64
2022-10-30T23:46:45.638Z,-6.98
2022-10-30T23:49:14.325Z,-6.60
2022-10-30T23:51:45.765Z,-6.72
2022-10-30T23:54:14.314Z,-6.84
2022-10-30T23:56:42.809Z,-6.87
2022-10-30T23:59:11.345Z,-6.90
